createdAt,value
2023-02-21T00:00:40.603Z,984.08
2023-02-21T00:01:40.593Z,984.11
2023-02-21T00:02:40.591Z,984.15
2023-02-21T00:03:40.605Z,984.16
2023-02-21T00:04:40.552Z,984.17
2023-02-21T00:05:40.691Z,984.17
2023-02-21T00:06:40.534Z,984.20
2023-02-21T00:07:40.526Z,984.19
2023-02-21T00:08:40.518Z,984.09
2023-02-21T00:09:40.508Z,984.12
2023-02-21T00:10:40.550Z,984.05
2023-02-21T00:11:40.495Z,984.08
2023-02-21T00:12:40.479Z,984.14
2023-02-21T00:13:40.494Z,984.16
2023-02-21T00:14:40.481Z,984.11
2023-02-21T00:15:40.476Z,984.06
2023-02-21T00:16:40.500Z,984.10
2023-02-21T00:17:40.441Z,984.01
2023-02-21T00:18:40.433Z,984.09
2023-02-21T00:19:40.419Z,984.04
2023-02-21T00:20:40.414Z,984.01
2023-02-21T00:21:40.428Z,983.96
2023-02-21T00:22:40.392Z,984.02
2023-02-21T00:23:40.381Z,983.98
2023-02-21T00:24:40.371Z,983.91
2023-02-21T00:25:40.373Z,983.95
2023-02-21T00:26:40.397Z,984.00
2023-02-21T00:27:40.349Z,984.01
2023-02-21T00:28:40.339Z,984.06
2023-02-21T00:29:40.318Z,984.07
2023-02-21T00:30:40.431Z,984.04
2023-02-21T00:31:40.306Z,984.01
2023-02-21T00:32:40.361Z,983.99
2023-02-21T00:33:40.278Z,983.99
2023-02-21T00:34:40.294Z,983.97
2023-02-21T00:35:40.271Z,983.97
2023-02-21T00:36:40.251Z,983.96
2023-02-21T00:37:40.235Z,984.00
2023-02-21T00:38:40.224Z,984.03
2023-02-21T00:39:40.232Z,984.00
2023-02-21T00:40:40.223Z,984.01
2023-02-21T00:41:40.251Z,983.99
2023-02-21T00:42:40.214Z,983.99
2023-02-21T00:43:40.179Z,983.98
2023-02-21T00:44:40.164Z,984.03
2023-02-21T00:45:40.186Z,983.94
2023-02-21T00:46:40.213Z,983.98
2023-02-21T00:47:40.133Z,983.98
2023-02-21T00:48:40.192Z,984.01
2023-02-21T00:49:40.116Z,983.89
2023-02-21T00:50:40.110Z,983.90
2023-02-21T00:51:40.096Z,983.95
2023-02-21T00:52:40.096Z,983.89
2023-02-21T00:53:40.074Z,983.92
2023-02-21T00:54:40.062Z,983.92
2023-02-21T00:55:40.069Z,983.86
2023-02-21T00:56:40.048Z,983.91
2023-02-21T00:57:40.037Z,983.95
2023-02-21T00:58:40.023Z,983.92
2023-02-21T00:59:40.034Z,983.89
2023-02-21T01:00:40.018Z,983.88
2023-02-21T01:01:40.042Z,983.83
2023-02-21T01:02:39.993Z,983.83
2023-02-21T01:03:39.984Z,983.79
2023-02-21T01:04:40.004Z,983.76
2023-02-21T01:05:39.974Z,983.80
2023-02-21T01:06:39.956Z,983.79
2023-02-21T01:07:39.940Z,983.79
2023-02-21T01:08:39.933Z,983.79
2023-02-21T01:09:39.942Z,983.76
2023-02-21T01:10:39.918Z,983.74
2023-02-21T01:11:39.901Z,983.69
2023-02-21T01:12:39.890Z,983.68
2023-02-21T01:13:39.871Z,983.71
2023-02-21T01:14:40.872Z,983.72
2023-02-21T01:15:39.899Z,983.74
2023-02-21T01:16:39.874Z,983.74
2023-02-21T01:17:39.941Z,983.71
2023-02-21T01:18:39.836Z,983.75
2023-02-21T01:19:39.824Z,983.72
2023-02-21T01:20:39.827Z,983.66
2023-02-21T01:21:39.808Z,983.71
2023-02-21T01:22:39.802Z,983.72
2023-02-21T01:23:39.784Z,983.70
2023-02-21T01:24:39.777Z,983.73
2023-02-21T01:25:39.776Z,983.72
2023-02-21T01:26:39.785Z,983.67
2023-02-21T01:27:39.759Z,983.70
2023-02-21T01:28:39.736Z,983.73
2023-02-21T01:29:39.725Z,983.72
2023-02-21T01:30:39.955Z,983.71
2023-02-21T01:31:39.703Z,983.73
2023-02-21T01:32:39.696Z,983.64
2023-02-21T01:33:39.690Z,983.67
2023-02-21T01:34:39.681Z,983.67
2023-02-21T01:35:39.686Z,983.69
2023-02-21T01:36:39.660Z,983.74
2023-02-21T01:37:39.646Z,983.73
2023-02-21T01:38:39.655Z,983.74
2023-02-21T01:39:39.634Z,983.72
2023-02-21T01:40:39.627Z,983.76
2023-02-21T01:41:39.609Z,983.73
2023-02-21T01:42:39.621Z,983.83
2023-02-21T01:43:39.583Z,983.88
2023-02-21T01:44:39.571Z,983.91
2023-02-21T01:45:39.591Z,983.82
2023-02-21T01:46:39.569Z,983.87
2023-02-21T01:47:39.546Z,983.84
2023-02-21T01:48:39.531Z,983.87
2023-02-21T01:49:39.522Z,983.80
2023-02-21T01:50:39.547Z,983.85
2023-02-21T01:51:39.511Z,983.90
2023-02-21T01:52:39.542Z,983.86
2023-02-21T01:53:39.483Z,983.80
2023-02-21T01:54:39.498Z,983.83
2023-02-21T01:55:39.483Z,983.79
2023-02-21T01:56:39.476Z,983.76
2023-02-21T01:57:39.445Z,983.78
2023-02-21T01:58:39.438Z,983.80
2023-02-21T01:59:39.424Z,983.83
2023-02-21T02:00:39.430Z,983.79
2023-02-21T02:01:39.512Z,983.79
2023-02-21T02:02:39.397Z,983.77
2023-02-21T02:03:39.386Z,983.73
2023-02-21T02:04:39.524Z,983.77
2023-02-21T02:05:39.376Z,983.76
2023-02-21T02:06:39.353Z,983.81
2023-02-21T02:07:39.348Z,983.74
2023-02-21T02:08:39.342Z,983.84
2023-02-21T02:09:39.325Z,983.80
2023-02-21T02:10:39.329Z,983.78
2023-02-21T02:11:39.308Z,983.77
2023-02-21T02:12:39.300Z,983.81
2023-02-21T02:13:39.287Z,983.78
2023-02-21T02:14:39.269Z,983.75
2023-02-21T02:15:40.296Z,983.73
2023-02-21T02:16:39.269Z,983.76
2023-02-21T02:17:39.253Z,983.76
2023-02-21T02:18:39.239Z,983.76
2023-02-21T02:19:39.299Z,983.74
2023-02-21T02:20:39.277Z,983.81
2023-02-21T02:21:39.255Z,983.86
2023-02-21T02:22:39.212Z,983.77
2023-02-21T02:23:39.192Z,983.77
2023-02-21T02:24:39.186Z,983.79
2023-02-21T02:25:39.185Z,983.78
2023-02-21T02:26:39.164Z,983.78
2023-02-21T02:27:39.157Z,983.75
2023-02-21T02:28:39.152Z,983.74
2023-02-21T02:29:39.137Z,983.73
2023-02-21T02:30:39.184Z,983.72
2023-02-21T02:31:39.292Z,983.78
2023-02-21T02:32:39.105Z,983.80
2023-02-21T02:33:39.099Z,983.74
2023-02-21T02:34:39.111Z,983.72
2023-02-21T02:35:39.086Z,983.83
2023-02-21T02:36:39.064Z,983.78
2023-02-21T02:37:39.054Z,983.82
2023-02-21T02:38:39.047Z,983.81
2023-02-21T02:39:39.033Z,983.81
2023-02-21T02:40:39.036Z,983.81
2023-02-21T02:41:39.027Z,983.77
2023-02-21T02:42:39.011Z,983.83
2023-02-21T02:43:39.000Z,983.73
2023-02-21T02:44:38.989Z,983.77
2023-02-21T02:45:39.066Z,983.78
2023-02-21T02:46:38.985Z,983.76
2023-02-21T02:47:38.954Z,983.76
2023-02-21T02:48:38.946Z,983.72
2023-02-21T02:49:38.933Z,983.69
2023-02-21T02:50:38.935Z,983.66
2023-02-21T02:51:38.912Z,983.68
2023-02-21T02:52:38.902Z,983.67
2023-02-21T02:53:38.892Z,983.71
2023-02-21T02:54:38.890Z,983.71
2023-02-21T02:55:38.875Z,983.75
2023-02-21T02:56:38.913Z,983.73
2023-02-21T02:57:38.856Z,983.65
2023-02-21T02:58:38.850Z,983.77
2023-02-21T02:59:38.833Z,983.69
2023-02-21T03:00:38.825Z,983.65
2023-02-21T03:01:38.896Z,983.77
2023-02-21T03:02:38.803Z,983.72
2023-02-21T03:03:38.815Z,983.64
2023-02-21T03:04:38.791Z,983.68
2023-02-21T03:05:38.780Z,983.57
2023-02-21T03:06:38.772Z,983.63
2023-02-21T03:07:38.754Z,983.62
2023-02-21T03:08:38.743Z,983.71
2023-02-21T03:09:38.752Z,983.72
2023-02-21T03:10:38.725Z,983.65
2023-02-21T03:11:38.730Z,983.73
2023-02-21T03:12:38.726Z,983.73
2023-02-21T03:13:38.696Z,983.80
2023-02-21T03:14:38.695Z,983.74
2023-02-21T03:15:38.676Z,983.80
2023-02-21T03:16:38.678Z,983.78
2023-02-21T03:17:38.663Z,983.82
2023-02-21T03:18:38.651Z,983.72
2023-02-21T03:19:38.662Z,983.78
2023-02-21T03:20:38.634Z,983.79
2023-02-21T03:21:38.630Z,983.82
2023-02-21T03:22:38.623Z,983.84
2023-02-21T03:23:38.599Z,983.79
2023-02-21T03:24:38.590Z,983.84
2023-02-21T03:25:38.580Z,983.85
2023-02-21T03:26:38.583Z,983.82
2023-02-21T03:27:38.559Z,983.79
2023-02-21T03:28:38.554Z,983.82
2023-02-21T03:29:38.539Z,983.84
2023-02-21T03:30:38.583Z,983.82
2023-02-21T03:31:38.570Z,983.81
2023-02-21T03:32:38.516Z,983.78
2023-02-21T03:33:38.496Z,983.79
2023-02-21T03:34:38.491Z,983.78
2023-02-21T03:35:38.479Z,983.78
2023-02-21T03:36:38.483Z,983.79
2023-02-21T03:37:38.467Z,983.73
2023-02-21T03:38:38.967Z,983.82
2023-02-21T03:39:38.444Z,983.75
2023-02-21T03:40:38.436Z,983.78
2023-02-21T03:41:38.461Z,983.68
2023-02-21T03:42:38.418Z,983.71
2023-02-21T03:43:38.424Z,983.75
2023-02-21T03:44:38.403Z,983.75
2023-02-21T03:45:38.390Z,983.70
2023-02-21T03:46:40.834Z,983.69
2023-02-21T03:47:39.380Z,983.69
2023-02-21T03:48:38.356Z,983.71
2023-02-21T03:49:38.349Z,983.68
2023-02-21T03:50:38.337Z,983.67
2023-02-21T03:51:38.369Z,983.66
2023-02-21T03:52:38.363Z,983.66
2023-02-21T03:53:38.306Z,983.76
2023-02-21T03:54:38.300Z,983.79
2023-02-21T03:55:38.308Z,983.73
2023-02-21T03:56:42.252Z,983.76
2023-02-21T03:57:39.297Z,983.75
2023-02-21T03:58:39.265Z,983.74
2023-02-21T03:59:38.257Z,983.81
2023-02-21T04:00:38.304Z,983.81
2023-02-21T04:01:38.291Z,983.80
2023-02-21T04:02:38.226Z,983.74
2023-02-21T04:03:38.218Z,983.76
2023-02-21T04:04:38.286Z,983.79
2023-02-21T04:05:38.203Z,983.75
2023-02-21T04:06:38.196Z,983.74
2023-02-21T04:07:38.181Z,983.74
2023-02-21T04:08:38.196Z,983.79
2023-02-21T04:09:38.161Z,983.83
2023-02-21T04:10:51.319Z,983.82
2023-02-21T04:11:40.149Z,983.80
2023-02-21T04:12:38.619Z,983.80
2023-02-21T04:13:38.118Z,983.81
2023-02-21T04:14:38.112Z,983.84
2023-02-21T04:15:38.098Z,983.88
2023-02-21T04:16:38.108Z,983.89
2023-02-21T04:17:38.081Z,983.86
2023-02-21T04:18:38.064Z,983.87
2023-02-21T04:19:38.060Z,983.89
2023-02-21T04:20:38.045Z,983.92
2023-02-21T04:21:38.053Z,983.93
2023-02-21T04:22:38.030Z,983.90
2023-02-21T04:23:38.018Z,983.98
2023-02-21T04:24:38.012Z,983.99
2023-02-21T04:25:38.008Z,984.01
2023-02-21T04:26:38.002Z,983.99
2023-02-21T04:27:37.982Z,983.97
2023-02-21T04:28:37.977Z,983.99
2023-02-21T04:29:37.960Z,983.99
2023-02-21T04:30:38.040Z,983.95
2023-02-21T04:31:38.008Z,983.92
2023-02-21T04:32:38.022Z,983.94
2023-02-21T04:33:37.916Z,983.88
2023-02-21T04:34:37.914Z,983.88
2023-02-21T04:35:38.335Z,983.89
2023-02-21T04:36:37.902Z,983.97
2023-02-21T04:37:38.931Z,983.95
2023-02-21T04:38:37.881Z,983.96
2023-02-21T04:39:37.862Z,983.88
2023-02-21T04:40:37.853Z,983.89
2023-02-21T04:41:37.864Z,983.92
2023-02-21T04:42:37.833Z,983.87
2023-02-21T04:43:37.830Z,983.83
2023-02-21T04:44:37.864Z,983.84
2023-02-21T04:45:37.862Z,983.79
2023-02-21T04:46:37.889Z,983.80
2023-02-21T04:47:37.820Z,983.80
2023-02-21T04:48:37.786Z,983.73
2023-02-21T04:49:37.764Z,983.71
2023-02-21T04:50:37.757Z,983.72
2023-02-21T04:51:37.763Z,983.65
2023-02-21T04:52:37.740Z,983.64
2023-02-21T04:53:37.729Z,983.57
2023-02-21T04:54:37.726Z,983.61
2023-02-21T04:55:37.712Z,983.68
2023-02-21T04:56:37.928Z,983.58
2023-02-21T04:57:37.677Z,983.61
2023-02-21T04:58:45.402Z,983.57
2023-02-21T04:59:39.675Z,983.55
2023-02-21T05:00:37.663Z,983.56
2023-02-21T05:01:37.666Z,983.56
2023-02-21T05:02:37.643Z,983.55
2023-02-21T05:03:37.647Z,983.51
2023-02-21T05:04:37.687Z,983.50
2023-02-21T05:05:37.618Z,983.50
2023-02-21T05:06:37.633Z,983.57
2023-02-21T05:07:37.606Z,983.48
2023-02-21T05:08:37.590Z,983.55
2023-02-21T05:09:37.580Z,983.50
2023-02-21T05:10:45.460Z,983.52
2023-02-21T05:11:39.569Z,983.51
2023-02-21T05:12:37.558Z,983.59
2023-02-21T05:13:37.537Z,983.56
2023-02-21T05:14:37.526Z,983.52
2023-02-21T05:15:37.526Z,983.54
2023-02-21T05:16:37.573Z,983.52
2023-02-21T05:17:37.504Z,983.52
2023-02-21T05:18:37.503Z,983.50
2023-02-21T05:19:37.478Z,983.48
2023-02-21T05:20:37.470Z,983.53
2023-02-21T05:21:37.474Z,983.52
2023-02-21T05:22:37.459Z,983.51
2023-02-21T05:23:37.440Z,983.55
2023-02-21T05:24:37.460Z,983.51
2023-02-21T05:25:37.431Z,983.51
2023-02-21T05:26:37.413Z,983.51
2023-02-21T05:27:37.415Z,983.49
2023-02-21T05:28:37.393Z,983.55
2023-02-21T05:29:37.385Z,983.52
2023-02-21T05:30:37.468Z,983.52
2023-02-21T05:31:37.428Z,983.51
2023-02-21T05:32:38.382Z,983.40
2023-02-21T05:33:37.381Z,983.43
2023-02-21T05:34:37.338Z,983.51
2023-02-21T05:35:37.342Z,983.47
2023-02-21T05:36:37.320Z,983.45
2023-02-21T05:37:37.322Z,983.48
2023-02-21T05:38:37.301Z,983.38
2023-02-21T05:39:37.296Z,983.41
2023-02-21T05:40:37.284Z,983.47
2023-02-21T05:41:37.269Z,983.45
2023-02-21T05:42:37.299Z,983.47
2023-02-21T05:43:37.250Z,983.48
2023-02-21T05:44:37.249Z,983.42
2023-02-21T05:45:37.238Z,983.45
2023-02-21T05:46:37.258Z,983.48
2023-02-21T05:47:37.228Z,983.52
2023-02-21T05:48:37.203Z,983.44
2023-02-21T05:49:37.197Z,983.47
2023-02-21T05:50:37.187Z,983.41
2023-02-21T05:51:37.191Z,983.46
2023-02-21T05:52:37.189Z,983.46
2023-02-21T05:53:37.156Z,983.43
2023-02-21T05:54:37.149Z,983.40
2023-02-21T05:55:37.154Z,983.45
2023-02-21T05:56:37.129Z,983.43
2023-02-21T05:57:37.125Z,983.43
2023-02-21T05:58:37.111Z,983.47
2023-02-21T05:59:37.119Z,983.45
2023-02-21T06:00:37.090Z,983.50
2023-02-21T06:01:37.073Z,983.42
2023-02-21T06:02:37.174Z,983.40
2023-02-21T06:03:37.104Z,983.45
2023-02-21T06:04:38.044Z,983.43
2023-02-21T06:05:37.040Z,983.45
2023-02-21T06:06:37.021Z,983.48
2023-02-21T06:07:37.026Z,983.44
2023-02-21T06:08:37.007Z,983.42
2023-02-21T06:09:37.004Z,983.49
2023-02-21T06:10:36.985Z,983.45
2023-02-21T06:11:37.000Z,983.47
2023-02-21T06:12:36.977Z,983.42
2023-02-21T06:13:36.958Z,983.47
2023-02-21T06:14:36.941Z,983.51
2023-02-21T06:15:37.945Z,983.47
2023-02-21T06:16:36.936Z,983.41
2023-02-21T06:17:36.924Z,983.43
2023-02-21T06:18:36.905Z,983.37
2023-02-21T06:19:36.898Z,983.44
2023-02-21T06:20:36.893Z,983.40
2023-02-21T06:21:36.895Z,983.35
2023-02-21T06:22:36.917Z,983.33
2023-02-21T06:23:36.870Z,983.37
2023-02-21T06:24:36.869Z,983.49
2023-02-21T06:25:36.849Z,983.44
2023-02-21T06:26:36.835Z,983.46
2023-02-21T06:27:36.834Z,983.41
2023-02-21T06:28:36.845Z,983.53
2023-02-21T06:29:36.816Z,983.43
2023-02-21T06:30:36.827Z,983.52
2023-02-21T06:31:36.918Z,983.46
2023-02-21T06:32:36.792Z,983.45
2023-02-21T06:33:36.770Z,983.47
2023-02-21T06:34:36.761Z,983.43
2023-02-21T06:35:36.763Z,983.43
2023-02-21T06:36:36.758Z,983.47
2023-02-21T06:37:36.769Z,983.38
2023-02-21T06:38:36.728Z,983.43
2023-02-21T06:39:36.722Z,983.40
2023-02-21T06:40:36.709Z,983.47
2023-02-21T06:41:36.703Z,983.38
2023-02-21T06:42:36.705Z,983.42
2023-02-21T06:43:36.679Z,983.41
2023-02-21T06:44:36.670Z,983.43
2023-02-21T06:45:36.669Z,983.45
2023-02-21T06:46:36.816Z,983.44
2023-02-21T06:47:36.694Z,983.48
2023-02-21T06:48:36.650Z,983.45
2023-02-21T06:49:36.631Z,983.50
2023-02-21T06:50:36.619Z,983.46
2023-02-21T06:51:36.614Z,983.46
2023-02-21T06:52:36.617Z,983.40
2023-02-21T06:53:36.598Z,983.45
2023-02-21T06:54:36.593Z,983.46
2023-02-21T06:55:36.578Z,983.44
2023-02-21T06:56:36.594Z,983.44
2023-02-21T06:57:36.574Z,983.44
2023-02-21T06:58:36.562Z,983.40
2023-02-21T06:59:36.546Z,983.43
2023-02-21T07:00:36.555Z,983.37
2023-02-21T07:01:36.558Z,983.38
2023-02-21T07:02:36.521Z,983.44
2023-02-21T07:03:36.503Z,983.41
2023-02-21T07:04:36.519Z,983.51
2023-02-21T07:05:36.481Z,983.37
2023-02-21T07:06:36.472Z,983.35
2023-02-21T07:07:36.474Z,983.40
2023-02-21T07:08:36.461Z,983.37
2023-02-21T07:09:36.502Z,983.34
2023-02-21T07:10:36.430Z,983.34
2023-02-21T07:11:36.449Z,983.35
2023-02-21T07:12:36.425Z,983.38
2023-02-21T07:13:36.406Z,983.40
2023-02-21T07:14:36.397Z,983.38
2023-02-21T07:15:36.405Z,983.43
2023-02-21T07:16:36.378Z,983.44
2023-02-21T07:17:36.381Z,983.48
2023-02-21T07:18:36.369Z,983.52
2023-02-21T07:19:36.369Z,983.53
2023-02-21T07:20:36.350Z,983.52
2023-02-21T07:22:36.338Z,983.58
2023-02-21T07:23:36.309Z,983.64
2023-02-21T07:24:36.721Z,983.57
2023-02-21T07:25:37.285Z,983.50
2023-02-21T07:26:36.284Z,983.53
2023-02-21T07:27:36.299Z,983.62
2023-02-21T07:28:36.270Z,983.58
2023-02-21T07:29:36.247Z,983.58
2023-02-21T07:30:36.264Z,983.59
2023-02-21T07:31:36.325Z,983.62
2023-02-21T07:32:36.222Z,983.53
2023-02-21T07:33:36.201Z,983.61
2023-02-21T07:34:36.214Z,983.52
2023-02-21T07:35:36.211Z,983.58
2023-02-21T07:36:38.925Z,983.58
2023-02-21T07:37:36.174Z,983.57
2023-02-21T07:38:36.155Z,983.65
2023-02-21T07:39:36.145Z,983.62
2023-02-21T07:40:36.133Z,983.63
2023-02-21T07:41:36.130Z,983.63
2023-02-21T07:42:36.134Z,983.61
2023-02-21T07:43:36.102Z,983.57
2023-02-21T07:44:36.096Z,983.58
2023-02-21T07:45:36.085Z,983.62
2023-02-21T07:46:36.126Z,983.59
2023-02-21T07:47:36.074Z,983.59
2023-02-21T07:48:36.085Z,983.62
2023-02-21T07:49:36.040Z,983.68
2023-02-21T07:50:36.055Z,983.67
2023-02-21T07:51:36.034Z,983.65
2023-02-21T07:52:36.031Z,983.69
2023-02-21T07:53:36.004Z,983.67
2023-02-21T07:54:35.993Z,983.72
2023-02-21T07:55:35.983Z,983.67
2023-02-21T07:56:35.988Z,983.68
2023-02-21T07:57:35.982Z,983.64
2023-02-21T07:58:35.959Z,983.64
2023-02-21T07:59:35.948Z,983.64
2023-02-21T08:00:36.818Z,983.70
2023-02-21T08:01:35.945Z,983.67
2023-02-21T08:02:35.926Z,983.68
2023-02-21T08:03:35.910Z,983.65
2023-02-21T08:04:35.933Z,983.61
2023-02-21T08:05:35.883Z,983.72
2023-02-21T08:06:35.876Z,983.64
2023-02-21T08:07:35.877Z,983.67
2023-02-21T08:08:35.853Z,983.73
2023-02-21T08:09:35.870Z,983.70
2023-02-21T08:10:35.834Z,983.75
2023-02-21T08:11:35.833Z,983.82
2023-02-21T08:12:35.824Z,983.79
2023-02-21T08:13:35.808Z,983.73
2023-02-21T08:14:35.820Z,983.77
2023-02-21T08:15:35.788Z,983.79
2023-02-21T08:16:35.916Z,983.76
2023-02-21T08:17:35.771Z,983.71
2023-02-21T08:18:35.743Z,983.78
2023-02-21T08:19:36.753Z,983.78
2023-02-21T08:20:35.743Z,983.75
2023-02-21T08:21:35.721Z,983.80
2023-02-21T08:22:35.719Z,983.77
2023-02-21T08:23:35.716Z,983.78
2023-02-21T08:24:35.694Z,983.78
2023-02-21T08:25:35.682Z,983.81
2023-02-21T08:26:35.675Z,983.76
2023-02-21T08:27:35.677Z,983.77
2023-02-21T08:28:35.646Z,983.77
2023-02-21T08:29:35.639Z,983.81
2023-02-21T08:30:35.677Z,983.80
2023-02-21T08:31:36.663Z,983.76
2023-02-21T08:32:35.646Z,983.79
2023-02-21T08:33:35.609Z,983.78
2023-02-21T08:34:35.628Z,983.89
2023-02-21T08:35:35.590Z,983.81
2023-02-21T08:36:35.579Z,983.86
2023-02-21T08:37:35.573Z,983.86
2023-02-21T08:38:35.552Z,983.91
2023-02-21T08:39:35.558Z,983.86
2023-02-21T08:40:35.543Z,983.88
2023-02-21T08:41:35.523Z,983.82
2023-02-21T08:42:35.513Z,983.84
2023-02-21T08:43:35.518Z,983.81
2023-02-21T08:44:35.498Z,983.88
2023-02-21T08:45:35.490Z,983.76
2023-02-21T08:46:35.540Z,983.80
2023-02-21T08:47:35.473Z,983.82
2023-02-21T08:48:35.483Z,983.83
2023-02-21T08:49:35.460Z,983.80
2023-02-21T08:50:35.455Z,983.87
2023-02-21T08:51:35.439Z,983.84
2023-02-21T08:52:35.455Z,983.83
2023-02-21T08:53:35.440Z,983.85
2023-02-21T08:54:35.411Z,983.81
2023-02-21T08:55:35.398Z,983.80
2023-02-21T08:56:35.385Z,983.83
2023-02-21T08:57:35.377Z,983.84
2023-02-21T08:58:37.877Z,983.82
2023-02-21T08:59:35.373Z,983.82
2023-02-21T09:00:35.376Z,983.82
2023-02-21T09:01:35.340Z,983.91
2023-02-21T09:02:35.333Z,983.85
2023-02-21T09:03:35.347Z,983.88
2023-02-21T09:04:35.337Z,983.81
2023-02-21T09:05:35.303Z,983.87
2023-02-21T09:06:35.298Z,983.83
2023-02-21T09:07:35.282Z,983.86
2023-02-21T09:08:35.289Z,983.87
2023-02-21T09:09:35.279Z,983.84
2023-02-21T09:10:35.295Z,983.85
2023-02-21T09:11:35.267Z,983.90
2023-02-21T09:12:35.273Z,983.87
2023-02-21T09:13:35.243Z,983.89
2023-02-21T09:14:35.219Z,983.90
2023-02-21T09:15:35.206Z,983.89
2023-02-21T09:16:35.231Z,983.88
2023-02-21T09:17:35.190Z,983.86
2023-02-21T09:18:35.197Z,983.87
2023-02-21T09:19:35.176Z,983.88
2023-02-21T09:20:35.161Z,983.87
2023-02-21T09:21:35.153Z,983.89
2023-02-21T09:22:35.138Z,983.81
2023-02-21T09:23:35.146Z,983.90
2023-02-21T09:24:35.118Z,983.91
2023-02-21T09:25:35.112Z,983.93
2023-02-21T09:26:35.109Z,983.91
2023-02-21T09:27:35.093Z,983.88
2023-02-21T09:28:35.121Z,983.92
2023-02-21T09:29:45.317Z,983.93
2023-02-21T09:30:37.110Z,983.94
2023-02-21T09:31:35.059Z,983.93
2023-02-21T09:32:35.119Z,983.94
2023-02-21T09:33:35.042Z,983.97
2023-02-21T09:34:35.014Z,984.00
2023-02-21T09:35:35.009Z,983.97
2023-02-21T09:36:34.994Z,984.00
2023-02-21T09:37:34.987Z,983.94
2023-02-21T09:38:34.988Z,983.95
2023-02-21T09:39:34.978Z,983.98
2023-02-21T09:40:34.959Z,983.95
2023-02-21T09:41:34.947Z,983.95
2023-02-21T09:42:34.947Z,983.95
2023-02-21T09:43:34.964Z,984.00
2023-02-21T09:44:34.926Z,983.91
2023-02-21T09:45:34.947Z,984.06
2023-02-21T09:46:34.905Z,984.02
2023-02-21T09:47:34.892Z,983.99
2023-02-21T09:48:34.890Z,984.05
2023-02-21T09:49:34.874Z,984.04
2023-02-21T09:50:34.893Z,984.01
2023-02-21T09:51:34.839Z,984.03
2023-02-21T09:52:34.835Z,984.06
2023-02-21T09:53:34.843Z,984.04
2023-02-21T09:54:34.810Z,984.01
2023-02-21T09:55:34.811Z,984.06
2023-02-21T09:56:34.798Z,983.98
2023-02-21T09:57:34.786Z,984.05
2023-02-21T09:58:34.793Z,984.07
2023-02-21T09:59:34.811Z,984.04
2023-02-21T10:00:34.759Z,984.02
2023-02-21T10:01:34.786Z,984.06
2023-02-21T10:02:34.730Z,983.98
2023-02-21T10:03:34.732Z,984.01
2023-02-21T10:04:34.761Z,984.02
2023-02-21T10:05:34.702Z,984.01
2023-02-21T10:06:34.686Z,984.07
2023-02-21T10:07:34.692Z,984.05
2023-02-21T10:08:34.683Z,984.03
2023-02-21T10:09:34.659Z,984.07
2023-02-21T10:10:34.652Z,984.04
2023-02-21T10:11:34.645Z,984.07
2023-02-21T10:12:34.634Z,984.03
2023-02-21T10:13:34.628Z,984.03
2023-02-21T10:14:34.611Z,984.09
2023-02-21T10:15:34.597Z,984.10
2023-02-21T10:16:34.599Z,984.10
2023-02-21T10:17:34.589Z,984.12
2023-02-21T10:18:34.583Z,984.11
2023-02-21T10:19:34.551Z,984.05
2023-02-21T10:20:34.556Z,984.09
2023-02-21T10:21:34.541Z,984.07
2023-02-21T10:22:34.555Z,984.05
2023-02-21T10:23:34.547Z,984.04
2023-02-21T10:24:34.513Z,984.06
2023-02-21T10:25:34.508Z,984.08
2023-02-21T10:26:34.500Z,984.11
2023-02-21T10:27:34.484Z,984.13
2023-02-21T10:28:34.506Z,984.11
2023-02-21T10:29:34.465Z,984.15
2023-02-21T10:30:34.594Z,984.12
2023-02-21T10:31:34.478Z,984.13
2023-02-21T10:32:34.435Z,984.15
2023-02-21T10:33:34.436Z,984.16
2023-02-21T10:34:34.419Z,984.16
2023-02-21T10:35:34.403Z,984.22
2023-02-21T10:36:34.403Z,984.27
2023-02-21T10:37:34.432Z,984.23
2023-02-21T10:38:34.388Z,984.18
2023-02-21T10:39:34.364Z,984.13
2023-02-21T10:40:34.372Z,984.17
2023-02-21T10:41:34.360Z,984.19
2023-02-21T10:42:34.338Z,984.21
2023-02-21T10:43:34.338Z,984.22
2023-02-21T10:44:34.326Z,984.12
2023-02-21T10:45:34.307Z,984.11
2023-02-21T10:46:34.323Z,984.15
2023-02-21T10:47:34.309Z,984.11
2023-02-21T10:48:34.289Z,984.17
2023-02-21T10:49:34.265Z,984.17
2023-02-21T10:50:34.289Z,984.09
2023-02-21T10:51:34.248Z,984.16
2023-02-21T10:52:36.284Z,984.16
2023-02-21T10:53:34.233Z,984.13
2023-02-21T10:54:35.458Z,984.10
2023-02-21T10:55:35.234Z,984.06
2023-02-21T10:56:34.198Z,984.09
2023-02-21T10:57:34.222Z,984.11
2023-02-21T10:58:34.182Z,984.11
2023-02-21T10:59:34.162Z,984.12
2023-02-21T11:00:34.178Z,984.08
2023-02-21T11:01:34.187Z,984.12
2023-02-21T11:02:34.185Z,984.14
2023-02-21T11:03:34.139Z,983.97
2023-02-21T11:04:34.119Z,984.04
2023-02-21T11:05:34.110Z,984.02
2023-02-21T11:06:34.146Z,983.99
2023-02-21T11:07:34.101Z,984.06
2023-02-21T11:08:34.084Z,984.07
2023-02-21T11:09:34.088Z,984.04
2023-02-21T11:10:34.052Z,984.01
2023-02-21T11:11:36.096Z,984.03
2023-02-21T11:12:34.030Z,984.03
2023-02-21T11:13:34.220Z,984.08
2023-02-21T11:14:34.017Z,984.03
2023-02-21T11:15:34.080Z,984.07
2023-02-21T11:16:34.029Z,984.04
2023-02-21T11:17:33.983Z,984.03
2023-02-21T11:18:33.987Z,984.00
2023-02-21T11:19:33.967Z,984.04
2023-02-21T11:20:33.953Z,984.05
2023-02-21T11:21:33.943Z,984.04
2023-02-21T11:22:34.818Z,983.96
2023-02-21T11:23:34.939Z,983.98
2023-02-21T11:24:33.911Z,984.01
2023-02-21T11:25:33.897Z,983.98
2023-02-21T11:26:33.888Z,984.01
2023-02-21T11:27:33.880Z,983.99
2023-02-21T11:28:34.040Z,984.02
2023-02-21T11:29:33.850Z,983.99
2023-02-21T11:30:33.905Z,983.99
2023-02-21T11:31:33.940Z,983.98
2023-02-21T11:32:33.834Z,983.91
2023-02-21T11:33:33.828Z,983.98
2023-02-21T11:34:33.818Z,984.00
2023-02-21T11:35:33.803Z,983.93
2023-02-21T11:36:33.793Z,983.90
2023-02-21T11:37:33.801Z,983.95
2023-02-21T11:38:33.783Z,983.87
2023-02-21T11:39:33.769Z,983.93
2023-02-21T11:40:34.019Z,983.92
2023-02-21T11:41:33.742Z,983.95
2023-02-21T11:42:33.733Z,983.85
2023-02-21T11:43:33.773Z,983.90
2023-02-21T11:44:33.712Z,983.84
2023-02-21T11:45:33.703Z,983.84
2023-02-21T11:46:33.707Z,983.85
2023-02-21T11:47:33.710Z,983.83
2023-02-21T11:48:33.706Z,983.87
2023-02-21T11:49:33.658Z,983.85
2023-02-21T11:50:33.649Z,983.82
2023-02-21T11:51:33.691Z,983.75
2023-02-21T11:52:33.639Z,983.76
2023-02-21T11:53:33.631Z,983.75
2023-02-21T11:54:33.613Z,983.78
2023-02-21T11:55:33.607Z,983.69
2023-02-21T11:56:33.588Z,983.72
2023-02-21T11:57:33.577Z,983.79
2023-02-21T11:58:33.575Z,983.84
2023-02-21T11:59:33.557Z,983.81
2023-02-21T12:00:33.568Z,983.83
2023-02-21T12:01:33.532Z,983.78
2023-02-21T12:02:33.582Z,983.77
2023-02-21T12:03:33.519Z,983.74
2023-02-21T12:04:33.723Z,983.79
2023-02-21T12:05:33.559Z,983.76
2023-02-21T12:06:33.493Z,983.72
2023-02-21T12:07:33.474Z,983.68
2023-02-21T12:08:33.469Z,983.69
2023-02-21T12:09:33.471Z,983.72
2023-02-21T12:10:33.453Z,983.76
2023-02-21T12:11:33.440Z,983.69
2023-02-21T12:12:33.438Z,983.73
2023-02-21T12:13:33.551Z,983.67
2023-02-21T12:14:33.724Z,983.66
2023-02-21T12:15:33.425Z,983.62
2023-02-21T12:16:33.394Z,983.62
2023-02-21T12:17:33.389Z,983.55
2023-02-21T12:18:33.372Z,983.58
2023-02-21T12:19:33.378Z,983.59
2023-02-21T12:20:33.376Z,983.54
2023-02-21T12:21:33.349Z,983.59
2023-02-21T12:22:33.333Z,983.63
2023-02-21T12:23:33.315Z,983.56
2023-02-21T12:24:33.314Z,983.63
2023-02-21T12:25:33.435Z,983.61
2023-02-21T12:26:33.504Z,983.57
2023-02-21T12:27:33.293Z,983.56
2023-02-21T12:28:33.271Z,983.55
2023-02-21T12:29:33.265Z,983.52